Nearby METAR Reports

 

KPVU - Provo Muni, Utah, USA
Distance from station: S 9mi, 15km
Updated: Thu, 27-Jun-2019 5:56am MDT
Clear
Clear
 Wind from ENE
Wind: ENE 3 mph , 6 km/h
Temperature: 61°F , 16°C
Dew Point: 39°F , 4°C
Humidity: 45%
Barometer: 30.03 inHg , 1016.9 hPa
Clouds: Clear
Visibility: 10 miles , 16 km
2019/06/27 11:56 KPVU 271156Z AUTO 07003KT 10SM CLR 16/04 A3003 RMK AO2 SLP113 7//// T01560044 10200 20150 53009
K36U - Heber/Russ Mcdon, Utah, USA
Distance from station: ENE 17mi, 27km
Updated: Wed, 11-Oct-2017 6:50pm MDT
NOT Current
Clear
Clear
 Wind from SSW
Wind: SSW 10 mph , 17 km/h, Gust: 18 mph , 30 km/h
Temperature: 63°F , 17°C
Dew Point: 16°F , -9°C
Humidity: 16%
Barometer: 29.87 inHg , 1011.5 hPa
Clouds: Clear
Visibility: 10 miles , 16 km
2017/10/12 00:50 K36U 120050Z AUTO 21009G16KT 10SM CLR 17/M09 A2987 RMK AO2
 
KSLC - Salt Lake City, Utah, USA
Distance from station: NNW 33mi, 53km
Updated: Thu, 27-Jun-2019 5:54am MDT
Mostly cloudy
Mostly cloudy
 Wind from S
Wind: S 17 mph , 28 km/h
Temperature: 75°F , 24°C
Dew Point: 36°F , 2°C
Humidity: 24%
Barometer: 29.95 inHg , 1014.2 hPa
Clouds: Mostly cloudy
Visibility: 10 miles , 16 km
Cloud details: Mostly cloudy 13000 ft
2019/06/27 11:54 KSLC 271154Z 17015KT 10SM BKN130 24/02 A2995 RMK AO2 SLP076 T02390017 10267 20233 53009